createdAt,value
2022-11-28T00:01:24.518Z,42.05
2022-11-28T00:03:51.989Z,40.60
2022-11-28T00:06:19.521Z,38.22
2022-11-28T00:08:46.612Z,37.30
2022-11-28T00:11:17.957Z,33.42
2022-11-28T00:13:46.824Z,33.00
2022-11-28T00:16:21.610Z,31.10
2022-11-28T00:21:19.854Z,25.05
2022-11-28T00:23:47.896Z,29.50
2022-11-28T00:26:29.880Z,29.17
2022-11-28T00:28:58.373Z,29.38
2022-11-28T00:31:31.139Z,33.13
2022-11-28T00:33:58.331Z,34.38
2022-11-28T00:36:25.703Z,38.63
2022-11-28T00:38:53.020Z,29.70
2022-11-28T00:41:28.974Z,27.75
2022-11-28T00:43:56.292Z,25.38
2022-11-28T00:46:24.647Z,31.48
2022-11-28T00:48:51.936Z,28.45
2022-11-28T00:51:24.205Z,32.03
2022-11-28T00:53:53.136Z,35.35
2022-11-28T00:56:23.248Z,32.35
2022-11-28T00:58:50.272Z,26.67
2022-11-28T01:01:29.026Z,26.08
2022-11-28T01:03:58.379Z,30.17
2022-11-28T01:06:28.660Z,26.73
2022-11-28T01:08:57.716Z,28.45
2022-11-28T01:11:25.359Z,25.38
2022-11-28T01:13:55.529Z,25.20
2022-11-28T01:16:23.387Z,24.88
2022-11-28T01:18:50.468Z,25.52
2022-11-28T01:21:17.919Z,24.75
2022-11-28T01:23:44.703Z,22.65
2022-11-28T01:26:17.373Z,26.15
2022-11-28T01:28:44.742Z,26.58
2022-11-28T01:31:14.793Z,26.42
2022-11-28T01:33:41.962Z,25.08
2022-11-28T01:36:10.237Z,28.38
2022-11-28T01:38:37.381Z,27.25
2022-11-28T01:41:04.442Z,25.88
2022-11-28T01:43:31.668Z,24.08
2022-11-28T01:45:58.620Z,24.17
2022-11-28T01:48:29.609Z,21.85
2022-11-28T01:51:00.448Z,23.38
2022-11-28T01:53:30.624Z,25.15
2022-11-28T01:56:09.887Z,24.08
2022-11-28T01:58:42.138Z,26.17
2022-11-28T02:01:10.827Z,20.70
2022-11-28T02:03:45.069Z,23.23
2022-11-28T02:06:14.206Z,24.97
2022-11-28T02:08:41.064Z,26.38
2022-11-28T02:11:35.774Z,26.38
2022-11-28T02:14:21.086Z,22.95
2022-11-28T02:17:03.063Z,25.70
2022-11-28T02:20:05.771Z,25.45
2022-11-28T02:23:02.260Z,19.63
2022-11-28T02:25:49.379Z,21.58
2022-11-28T02:28:54.722Z,25.02
2022-11-28T02:31:29.611Z,25.80
2022-11-28T02:34:02.714Z,23.50
2022-11-28T02:36:40.702Z,23.83
2022-11-28T02:39:26.078Z,22.25
2022-11-28T02:42:09.001Z,23.92
2022-11-28T02:44:50.942Z,23.08
2022-11-28T02:47:27.373Z,26.02
2022-11-28T02:50:04.675Z,25.92
2022-11-28T02:52:46.894Z,25.63
2022-11-28T02:55:15.521Z,22.85
2022-11-28T02:57:48.017Z,26.58
2022-11-28T03:00:34.518Z,23.05
2022-11-28T03:03:22.986Z,26.23
2022-11-28T03:06:17.863Z,28.35
2022-11-28T03:09:29.645Z,26.65
2022-11-28T03:12:27.592Z,27.05
2022-11-28T03:15:00.722Z,23.77
2022-11-28T03:17:38.185Z,26.60
2022-11-28T03:20:35.839Z,21.73
2022-11-28T03:23:21.284Z,23.45
2022-11-28T03:25:57.847Z,22.83
2022-11-28T03:28:45.732Z,23.25
2022-11-28T03:31:19.911Z,25.45
2022-11-28T03:33:54.826Z,24.95
2022-11-28T03:36:32.957Z,23.67
2022-11-28T03:39:05.061Z,23.92
2022-11-28T03:41:49.817Z,24.40
2022-11-28T03:44:30.331Z,23.58
2022-11-28T03:47:01.048Z,23.92
2022-11-28T03:49:36.233Z,30.65
2022-11-28T03:52:05.860Z,28.27
2022-11-28T03:54:37.999Z,25.88
2022-11-28T03:57:10.966Z,27.45
2022-11-28T03:59:43.380Z,29.25
2022-11-28T04:02:16.341Z,25.60
2022-11-28T04:04:49.250Z,25.85
2022-11-28T04:07:41.300Z,26.20
2022-11-28T04:10:20.469Z,25.27
2022-11-28T04:13:05.568Z,26.60
2022-11-28T04:15:41.893Z,29.77
2022-11-28T04:18:17.579Z,32.13
2022-11-28T04:20:53.661Z,33.92
2022-11-28T04:23:22.283Z,24.95
2022-11-28T04:25:58.701Z,25.48
2022-11-28T04:28:30.128Z,31.17
2022-11-28T04:30:59.090Z,27.17
2022-11-28T04:33:29.289Z,26.75
2022-11-28T04:35:57.432Z,33.45
2022-11-28T04:38:26.503Z,27.80
2022-11-28T04:41:17.634Z,31.73
2022-11-28T04:44:00.705Z,31.88
2022-11-28T04:46:36.578Z,33.15
2022-11-28T04:49:03.576Z,33.53
2022-11-28T04:51:39.782Z,30.58
2022-11-28T04:54:15.370Z,27.20
2022-11-28T04:57:04.001Z,28.52
2022-11-28T04:59:32.455Z,25.38
2022-11-28T05:02:04.608Z,28.55
2022-11-28T05:04:34.860Z,26.55
2022-11-28T05:07:06.839Z,22.75
2022-11-28T05:09:34.291Z,22.05
2022-11-28T05:12:01.814Z,26.05
2022-11-28T05:14:28.588Z,28.60
2022-11-28T05:16:55.361Z,22.70
2022-11-28T05:19:22.598Z,25.05
2022-11-28T05:21:49.305Z,23.88
2022-11-28T05:24:16.024Z,23.08
2022-11-28T05:26:43.446Z,21.10
2022-11-28T05:29:10.251Z,18.80
2022-11-28T05:31:38.132Z,21.60
2022-11-28T05:34:05.391Z,18.17
2022-11-28T05:36:32.241Z,18.23
2022-11-28T05:38:59.061Z,17.20
2022-11-28T05:41:29.095Z,17.00
2022-11-28T05:43:57.304Z,17.20
2022-11-28T05:46:24.811Z,14.38
2022-11-28T05:48:51.964Z,16.92
2022-11-28T05:51:18.874Z,20.33
2022-11-28T05:53:45.794Z,12.20
2022-11-28T05:56:16.311Z,13.88
2022-11-28T05:58:44.073Z,15.02
2022-11-28T06:01:20.554Z,14.45
2022-11-28T06:03:48.045Z,13.02
2022-11-28T06:06:17.377Z,12.10
2022-11-28T06:08:45.122Z,12.93
2022-11-28T06:11:14.898Z,13.23
2022-11-28T06:13:43.311Z,11.27
2022-11-28T06:16:21.919Z,9.48
2022-11-28T06:18:52.344Z,10.90
2022-11-28T06:21:19.478Z,10.23
2022-11-28T06:23:47.037Z,13.77
2022-11-28T06:26:18.180Z,11.35
2022-11-28T06:28:45.315Z,12.18
2022-11-28T06:31:14.681Z,12.90
2022-11-28T06:33:42.567Z,13.98
2022-11-28T06:36:11.243Z,13.57
2022-11-28T06:38:38.171Z,11.98
2022-11-28T06:41:18.016Z,16.23
2022-11-28T06:43:45.334Z,15.93
2022-11-28T06:46:16.232Z,12.52
2022-11-28T06:48:44.462Z,11.88
2022-11-28T06:51:12.570Z,12.38
2022-11-28T06:53:39.534Z,12.93
2022-11-28T06:56:09.157Z,19.15
2022-11-28T06:58:36.987Z,16.65
2022-11-28T07:01:13.665Z,16.15
2022-11-28T07:03:40.938Z,16.92
2022-11-28T07:06:08.939Z,15.05
2022-11-28T07:08:39.377Z,15.63
2022-11-28T07:11:14.104Z,14.05
2022-11-28T07:13:43.013Z,16.70
2022-11-28T07:16:15.068Z,10.95
2022-11-28T07:18:42.100Z,12.65
2022-11-28T07:21:09.178Z,8.52
2022-11-28T07:23:36.313Z,10.27
2022-11-28T07:26:04.957Z,9.30
2022-11-28T07:28:32.721Z,12.50
2022-11-28T07:31:06.483Z,8.80
2022-11-28T07:33:34.849Z,7.43
2022-11-28T07:36:03.366Z,9.25
2022-11-28T07:38:30.316Z,9.65
2022-11-28T07:41:06.957Z,12.27
2022-11-28T07:43:35.355Z,10.05
2022-11-28T07:46:07.219Z,11.80
2022-11-28T07:48:35.288Z,9.07
2022-11-28T07:51:11.642Z,17.30
2022-11-28T07:53:39.680Z,10.23
2022-11-28T07:56:15.381Z,9.55
2022-11-28T07:58:43.751Z,14.10
2022-11-28T08:01:12.621Z,13.50
2022-11-28T08:03:39.447Z,10.02
2022-11-28T08:06:06.940Z,10.02
2022-11-28T08:08:34.611Z,11.52
2022-11-28T08:11:04.965Z,15.40
2022-11-28T08:13:31.985Z,8.05
2022-11-28T08:15:59.056Z,12.90
2022-11-28T08:18:26.001Z,11.40
2022-11-28T08:20:52.965Z,14.65
2022-11-28T08:23:19.738Z,11.32
2022-11-28T08:25:46.677Z,10.18
2022-11-28T08:28:13.671Z,10.70
2022-11-28T08:30:40.612Z,10.70
2022-11-28T08:33:07.494Z,10.80
2022-11-28T08:35:34.669Z,8.98
2022-11-28T08:38:02.222Z,8.38
2022-11-28T08:40:29.281Z,14.02
2022-11-28T08:42:56.146Z,9.55
2022-11-28T08:45:22.990Z,10.02
2022-11-28T08:47:49.892Z,9.38
2022-11-28T08:50:16.605Z,8.40
2022-11-28T08:52:43.464Z,10.93
2022-11-28T08:55:10.668Z,8.77
2022-11-28T08:57:37.362Z,9.65
2022-11-28T09:00:06.322Z,9.85
2022-11-28T09:02:36.252Z,8.27
2022-11-28T09:05:03.256Z,7.95
2022-11-28T09:07:30.241Z,10.35
2022-11-28T09:09:57.287Z,9.00
2022-11-28T09:12:26.258Z,10.13
2022-11-28T09:14:53.277Z,10.70
2022-11-28T09:17:20.142Z,9.52
2022-11-28T09:19:47.096Z,9.77
2022-11-28T09:22:13.964Z,10.82
2022-11-28T09:24:40.868Z,14.55
2022-11-28T09:27:07.920Z,11.50
2022-11-28T09:29:34.913Z,9.30
2022-11-28T09:32:01.637Z,12.27
2022-11-28T09:34:28.566Z,11.85
2022-11-28T09:36:55.465Z,9.40
2022-11-28T09:39:22.997Z,10.27
2022-11-28T09:41:50.007Z,10.02
2022-11-28T09:44:25.922Z,10.13
2022-11-28T09:46:59.418Z,10.20
2022-11-28T09:49:31.360Z,10.95
2022-11-28T09:52:42.890Z,9.13
2022-11-28T09:55:21.933Z,8.73
2022-11-28T09:57:51.398Z,9.10
2022-11-28T10:00:22.877Z,10.38
2022-11-28T10:03:18.188Z,8.80
2022-11-28T10:05:50.732Z,11.80
2022-11-28T10:08:37.048Z,11.48
2022-11-28T10:11:37.822Z,12.57
2022-11-28T10:14:32.453Z,10.00
2022-11-28T10:17:13.504Z,10.38
2022-11-28T10:19:55.363Z,10.10
2022-11-28T10:22:44.857Z,8.63
2022-11-28T10:25:20.062Z,9.43
2022-11-28T10:27:48.369Z,10.20
2022-11-28T10:30:21.049Z,9.00
2022-11-28T10:33:02.632Z,11.25
2022-11-28T10:35:53.568Z,7.60
2022-11-28T10:38:25.790Z,9.95
2022-11-28T10:41:21.720Z,6.82
2022-11-28T10:44:00.335Z,7.13
2022-11-28T10:46:52.264Z,8.35
2022-11-28T10:49:39.290Z,7.30
2022-11-28T10:52:22.693Z,7.88
2022-11-28T10:55:19.155Z,12.05
2022-11-28T10:58:10.629Z,9.27
2022-11-28T11:00:38.627Z,6.15
2022-11-28T11:03:10.545Z,7.55
2022-11-28T11:05:37.489Z,5.63
2022-11-28T11:08:10.427Z,8.40
2022-11-28T11:10:49.404Z,10.20
2022-11-28T11:13:27.343Z,6.68
2022-11-28T11:16:03.059Z,9.05
2022-11-28T11:18:50.241Z,8.30
2022-11-28T11:21:20.657Z,10.60
2022-11-28T11:23:49.220Z,8.90
2022-11-28T11:26:27.571Z,5.82
2022-11-28T11:28:54.733Z,8.68
2022-11-28T11:31:28.297Z,6.75
2022-11-28T11:34:04.980Z,6.97
2022-11-28T11:36:37.045Z,5.93
2022-11-28T11:39:10.727Z,7.75
2022-11-28T11:41:40.094Z,7.43
2022-11-28T11:44:16.070Z,8.65
2022-11-28T11:46:56.478Z,5.95
2022-11-28T11:49:44.148Z,8.35
2022-11-28T11:52:23.629Z,8.13
2022-11-28T11:55:04.920Z,8.98
2022-11-28T11:57:42.814Z,8.50
2022-11-28T12:00:09.645Z,6.28
2022-11-28T12:02:59.248Z,10.77
2022-11-28T12:05:41.788Z,7.07
2022-11-28T12:08:31.981Z,8.88
2022-11-28T12:14:21.851Z,8.88
2022-11-28T12:16:59.774Z,6.45
2022-11-28T12:19:50.933Z,7.07
2022-11-28T12:22:38.461Z,6.32
2022-11-28T12:25:17.158Z,8.85
2022-11-28T12:27:52.779Z,7.38
2022-11-28T12:30:34.430Z,7.65
2022-11-28T12:33:29.118Z,10.00
2022-11-28T12:36:12.284Z,10.25
2022-11-28T12:38:57.985Z,6.80
2022-11-28T12:42:01.964Z,9.75
2022-11-28T12:44:58.956Z,7.65
2022-11-28T12:47:59.382Z,7.95
2022-11-28T12:50:37.043Z,7.45
2022-11-28T12:53:30.801Z,7.95
2022-11-28T12:56:25.674Z,11.27
2022-11-28T12:59:21.591Z,8.98
2022-11-28T13:04:21.027Z,9.15
2022-11-28T13:07:14.169Z,9.68
2022-11-28T13:09:55.445Z,8.30
2022-11-28T13:12:28.070Z,8.77
2022-11-28T13:14:57.783Z,10.00
2022-11-28T13:18:09.446Z,9.73
2022-11-28T13:20:42.359Z,11.15
2022-11-28T13:23:31.202Z,10.02
2022-11-28T13:26:08.728Z,9.50
2022-11-28T13:28:52.520Z,11.18
2022-11-28T13:31:33.935Z,9.65
2022-11-28T13:34:01.192Z,13.15
2022-11-28T13:40:18.823Z,14.27
2022-11-28T13:43:06.985Z,10.23
2022-11-28T13:45:39.216Z,11.10
2022-11-28T13:48:57.444Z,12.00
2022-11-28T13:51:32.001Z,13.40
2022-11-28T13:54:18.225Z,11.77
2022-11-28T13:56:47.588Z,12.52
2022-11-28T13:59:21.800Z,15.13
2022-11-28T14:01:58.449Z,14.23
2022-11-28T14:04:27.008Z,12.45
2022-11-28T14:07:01.826Z,10.73
2022-11-28T14:12:09.738Z,12.73
2022-11-28T14:14:48.571Z,12.43
2022-11-28T14:17:38.674Z,10.70
2022-11-28T14:20:32.908Z,10.25
2022-11-28T14:23:08.798Z,9.55
2022-11-28T14:25:45.019Z,11.38
2022-11-28T14:28:33.571Z,9.60
2022-11-28T14:31:05.142Z,9.57
2022-11-28T14:33:39.735Z,10.85
2022-11-28T14:36:35.165Z,15.50
2022-11-28T14:39:22.161Z,14.65
2022-11-28T14:42:04.806Z,10.60
2022-11-28T14:44:50.643Z,11.20
2022-11-28T14:47:18.354Z,11.13
2022-11-28T14:49:45.154Z,13.63
2022-11-28T14:52:41.461Z,12.57
2022-11-28T14:55:08.745Z,11.45
2022-11-28T14:57:38.401Z,12.65
2022-11-28T15:00:08.385Z,14.77
2022-11-28T15:02:58.559Z,14.55
2022-11-28T15:05:39.263Z,12.07
2022-11-28T15:08:31.143Z,11.35
2022-11-28T15:11:04.026Z,10.95
2022-11-28T15:13:33.650Z,11.48
2022-11-28T15:16:05.574Z,15.93
2022-11-28T15:18:33.121Z,12.85
2022-11-28T15:21:07.373Z,11.85
2022-11-28T15:23:37.300Z,10.13
2022-11-28T15:26:05.112Z,11.18
2022-11-28T15:28:35.732Z,10.27
2022-11-28T15:31:07.488Z,11.73
2022-11-28T15:33:34.794Z,9.48
2022-11-28T15:36:25.664Z,10.63
2022-11-28T15:38:53.561Z,12.23
2022-11-28T15:41:23.059Z,11.90
2022-11-28T15:43:50.174Z,10.02
2022-11-28T15:46:21.519Z,9.15
2022-11-28T15:48:50.800Z,12.57
2022-11-28T15:51:29.653Z,10.27
2022-11-28T15:53:57.065Z,13.73
2022-11-28T15:56:23.953Z,8.82
2022-11-28T15:58:51.956Z,10.93
2022-11-28T16:01:28.605Z,9.35
2022-11-28T16:04:10.695Z,10.00
2022-11-28T16:06:41.455Z,11.85
2022-11-28T16:09:35.134Z,10.82
2022-11-28T16:12:04.303Z,11.88
2022-11-28T16:14:42.967Z,10.00
2022-11-28T16:17:31.989Z,9.00
2022-11-28T16:20:00.666Z,9.40
2022-11-28T16:22:34.193Z,9.18
2022-11-28T16:25:30.477Z,8.90
2022-11-28T16:27:57.862Z,9.32
2022-11-28T16:30:42.969Z,11.70
2022-11-28T16:33:35.842Z,12.70
2022-11-28T16:36:16.126Z,13.27
2022-11-28T16:38:44.122Z,10.82
2022-11-28T16:41:20.564Z,9.40
2022-11-28T16:43:52.353Z,11.60
2022-11-28T16:46:22.022Z,10.23
2022-11-28T16:48:54.272Z,12.70
2022-11-28T16:51:21.169Z,15.85
2022-11-28T16:53:50.615Z,11.55
2022-11-28T16:56:48.276Z,11.35
2022-11-28T16:59:20.244Z,13.73
2022-11-28T17:01:52.460Z,10.93
2022-11-28T17:04:30.439Z,11.48
2022-11-28T17:06:59.597Z,11.05
2022-11-28T17:09:26.263Z,10.95
2022-11-28T17:12:06.192Z,13.00
2022-11-28T17:14:33.981Z,11.43
2022-11-28T17:17:03.375Z,12.48
2022-11-28T17:19:30.164Z,13.15
2022-11-28T17:21:59.052Z,13.82
2022-11-28T17:24:29.132Z,9.55
2022-11-28T17:26:58.400Z,10.50
2022-11-28T17:29:25.544Z,11.32
2022-11-28T17:31:55.201Z,14.82
2022-11-28T17:34:24.879Z,13.27
2022-11-28T17:36:52.296Z,13.05
2022-11-28T17:39:20.278Z,11.23
2022-11-28T17:41:47.842Z,14.52
2022-11-28T17:44:24.910Z,15.80
2022-11-28T17:46:53.532Z,12.35
2022-11-28T17:49:21.286Z,14.13
2022-11-28T17:51:48.337Z,15.80
2022-11-28T17:54:18.251Z,14.38
2022-11-28T17:56:45.930Z,13.07
2022-11-28T17:59:13.845Z,15.02
2022-11-28T18:01:41.927Z,15.98
2022-11-28T18:04:08.687Z,15.93
2022-11-28T18:06:35.777Z,16.00
2022-11-28T18:09:10.183Z,12.70
2022-11-28T18:11:39.481Z,14.10
2022-11-28T18:14:06.593Z,15.82
2022-11-28T18:16:35.731Z,20.33
2022-11-28T18:19:02.965Z,14.88
2022-11-28T18:21:29.858Z,15.90
2022-11-28T18:23:57.197Z,14.43
2022-11-28T18:26:26.310Z,14.88
2022-11-28T18:28:54.456Z,20.30
2022-11-28T18:31:24.706Z,21.33
2022-11-28T18:33:54.278Z,18.95
2022-11-28T18:36:27.033Z,19.35
2022-11-28T18:39:02.941Z,18.33
2022-11-28T18:41:29.925Z,19.05
2022-11-28T18:44:02.117Z,21.77
2022-11-28T18:46:30.162Z,24.67
2022-11-28T18:48:57.834Z,23.98
2022-11-28T18:51:25.832Z,22.33
2022-11-28T18:53:54.598Z,21.88
2022-11-28T18:56:22.735Z,21.73
2022-11-28T18:58:52.057Z,22.15
2022-11-28T19:01:31.092Z,21.65
2022-11-28T19:04:01.349Z,21.27
2022-11-28T19:06:28.670Z,25.67
2022-11-28T19:08:58.019Z,21.67
2022-11-28T19:11:25.720Z,23.92
2022-11-28T19:13:53.727Z,23.83
2022-11-28T19:16:23.377Z,23.83
2022-11-28T19:18:50.106Z,22.70
2022-11-28T19:21:20.845Z,21.15
2022-11-28T19:23:48.858Z,26.17
2022-11-28T19:26:20.757Z,25.38
2022-11-28T19:28:47.791Z,26.23
2022-11-28T19:31:17.234Z,21.95
2022-11-28T19:33:45.352Z,23.33
2022-11-28T19:36:14.145Z,26.50
2022-11-28T19:38:42.037Z,26.98
2022-11-28T19:41:14.891Z,25.27
2022-11-28T19:43:42.105Z,29.05
2022-11-28T19:46:10.075Z,24.23
2022-11-28T19:48:38.247Z,25.35
2022-11-28T19:51:06.353Z,23.98
2022-11-28T19:53:36.020Z,24.02
2022-11-28T19:56:20.855Z,24.38
2022-11-28T19:58:48.131Z,21.10
2022-11-28T20:01:17.995Z,20.80
2022-11-28T20:03:47.835Z,22.30
2022-11-28T20:06:29.981Z,20.05
2022-11-28T20:09:00.933Z,26.40
2022-11-28T20:11:30.699Z,28.75
2022-11-28T20:13:59.963Z,23.67
2022-11-28T20:16:29.537Z,23.50
2022-11-28T20:18:56.573Z,32.13
2022-11-28T20:21:23.370Z,21.55
2022-11-28T20:23:52.865Z,21.40
2022-11-28T20:26:21.886Z,25.42
2022-11-28T20:28:59.573Z,24.15
2022-11-28T20:31:36.149Z,23.50
2022-11-28T20:34:03.737Z,24.00
2022-11-28T20:36:31.612Z,25.58
2022-11-28T20:38:59.558Z,20.92
2022-11-28T20:41:27.703Z,26.83
2022-11-28T20:43:54.879Z,21.90
2022-11-28T20:46:27.319Z,23.42
2022-11-28T20:48:57.748Z,24.23
2022-11-28T20:51:26.578Z,21.17
2022-11-28T20:53:55.181Z,19.40
2022-11-28T20:56:25.041Z,22.65
2022-11-28T20:58:52.585Z,21.35
2022-11-28T21:01:22.269Z,25.08
2022-11-28T21:03:49.743Z,20.90
2022-11-28T21:06:17.083Z,18.50
2022-11-28T21:08:44.087Z,19.75
2022-11-28T21:11:36.370Z,19.38
2022-11-28T21:14:05.175Z,24.38
2022-11-28T21:16:34.265Z,23.70
2022-11-28T21:19:07.810Z,21.20
2022-11-28T21:21:36.926Z,20.52
2022-11-28T21:24:06.766Z,22.98
2022-11-28T21:26:40.921Z,23.73
2022-11-28T21:29:09.757Z,21.70
2022-11-28T21:31:40.163Z,20.70
2022-11-28T21:34:07.104Z,23.27
2022-11-28T21:36:34.142Z,21.40
2022-11-28T21:39:01.705Z,22.63
2022-11-28T21:41:30.539Z,25.98
2022-11-28T21:43:57.943Z,26.00
2022-11-28T21:46:25.123Z,20.33
2022-11-28T21:48:52.290Z,27.80
2022-11-28T21:51:22.286Z,19.20
2022-11-28T21:53:49.684Z,22.27
2022-11-28T21:56:16.654Z,22.17
2022-11-28T21:58:43.861Z,21.25
2022-11-28T22:01:12.983Z,22.65
2022-11-28T22:03:41.306Z,22.15
2022-11-28T22:06:09.497Z,25.85
2022-11-28T22:08:36.413Z,21.88
2022-11-28T22:11:05.314Z,24.33
2022-11-28T22:13:32.990Z,22.65
2022-11-28T22:16:00.008Z,21.70
2022-11-28T22:18:29.385Z,27.00
2022-11-28T22:21:22.333Z,23.58
2022-11-28T22:23:51.537Z,27.65
2022-11-28T22:26:18.505Z,22.45
2022-11-28T22:28:50.417Z,25.92
2022-11-28T22:31:20.668Z,22.58
2022-11-28T22:33:49.452Z,24.98
2022-11-28T22:36:21.141Z,22.45
2022-11-28T22:38:49.497Z,23.02
2022-11-28T22:41:26.214Z,25.52
2022-11-28T22:44:00.493Z,23.90
2022-11-28T22:46:28.169Z,21.70
2022-11-28T22:48:55.095Z,21.27
2022-11-28T22:51:24.762Z,26.30
2022-11-28T22:53:55.857Z,22.35
2022-11-28T22:56:23.356Z,21.20
2022-11-28T22:58:50.860Z,25.90
2022-11-28T23:01:26.922Z,24.65
2022-11-28T23:03:54.762Z,22.27
2022-11-28T23:06:24.793Z,21.38
2022-11-28T23:08:51.897Z,20.25
2022-11-28T23:11:21.532Z,23.70
2022-11-28T23:13:50.059Z,23.13
2022-11-28T23:16:20.516Z,23.27
2022-11-28T23:18:49.567Z,25.77
2022-11-28T23:21:17.754Z,20.17
2022-11-28T23:23:46.148Z,23.73
2022-11-28T23:26:19.416Z,18.77
2022-11-28T23:28:46.684Z,22.58
2022-11-28T23:31:26.125Z,19.58
2022-11-28T23:33:53.770Z,19.50
2022-11-28T23:36:29.161Z,22.50
2022-11-28T23:38:58.135Z,25.77
2022-11-28T23:41:26.355Z,19.98
2022-11-28T23:43:53.320Z,19.45
2022-11-28T23:46:21.316Z,18.35
2022-11-28T23:48:48.843Z,18.33
2022-11-28T23:51:17.956Z,20.48
2022-11-28T23:53:44.923Z,15.70
2022-11-28T23:56:14.312Z,14.70
2022-11-28T23:58:41.838Z,15.20
